Página principal
METAR-TAF:

METAR-TAF

Aeroportos :

Base Aérea de Thule

Thule, Gronelândia

latitude: 76-32N, longitude: 068-42W, altura: 77 m

Observação actual do tempo

O boletim foi feito há 16 minutos, às 16:56 UTC
Vento 6 kt de es-sudeste
Temperatura -27°C
Humidade 83%
Pressão 1008 hPa
Visibilidade: 9000 m
Céu limpo
neblina

METAR: BGTL 151656Z AUTO 11006KT 9000 BR CLR M27/M29 A2978 RMK AO2 SLP077 T12661286 TSNO $

Hora: 13:12 (17:12 UTC)

Previsão

O boletim foi feito há 7 horas e 12 minutos, às 10:00 UTC
Previsão válida de 15 às 10 UTC a 16 às 16 UTC
Vento 6 kt de es-sudeste
Visibilidade 10 km ou mais
Poucas nuvensa uma altura de 1500 ft
Tornando-se
de 16 às 11 UTC a 16 às 12 UTC
Vento 6 kt de este
Visibilidade 10 km ou mais
Poucas nuvensa uma altura de 12000 ft

TAF: BGTL 151000Z 1510/1616 12006KT 9999 FEW015 QNH2970INS BECMG 1611/1612 10006KT 9999 FEW120 QNH2971INS TXM22/1512Z TNM28/1610Z

Observações e previsões do tempo de mais de 4000 aeroportos (mensagens METAR e TAF).

As estações disponíveis são os pontos amarelos e vermelhos sobre o mapa.

Mova o rato sobre o mapa para ver o nome da estação.

Depois clique no ponto para visualizar as observações e previsões meteorológicas.

Para alterar o mapa : clique nos botões verdes com uma cruz preta para aumentar o zoom; no botão verde com uma pitada de zoom; ou nas setas verdes para mapas adjacentes.


METAR-TAF: